Time;durP1;ratioP1;P1;durP2;ratioP2;P2;SDS_P1;SDS_P2;PMS_P1;PMS_P2;Temp;Humidity;BMP_temperature;BMP_pressure;BME280_temperature;BME280_humidity;BME280_pressure;Samples;Min_cycle;Max_cycle;Signal;HPM_P1;HPM_P2
2021/11/28 00:01:29;;;;;;;4.40;2.92;;;4.10;1.00;;;;;;4997029;28;20609;-77
2021/11/28 00:04:06;;;;;;;4.80;3.00;;;4.10;1.00;;;;;;4996871;28;20180;-78
2021/11/28 00:06:34;;;;;;;7.93;3.00;;;4.10;1.00;;;;;;4997050;28;20185;-77
2021/11/28 00:15:19;;;;;;;5.38;2.88;;;4.20;1.00;;;;;;4977950;28;20194;-77
2021/11/28 00:21:12;;;;;;;3.33;3.03;;;4.20;1.00;;;;;;4981396;28;20538;-77
2021/11/28 00:23:48;;;;;;;3.05;2.65;;;4.20;1.00;;;;;;4987808;28;20266;-77
2021/11/28 00:26:14;;;;;;;4.47;3.17;;;4.20;1.00;;;;;;4976898;28;20178;-74
2021/11/28 00:28:42;;;;;;;2.92;2.58;;;4.20;1.00;;;;;;4994310;28;20504;-74
2021/11/28 00:31:12;;;;;;;2.83;2.63;;;4.20;1.00;;;;;;4991370;28;20189;-74
2021/11/28 00:33:38;;;;;;;6.50;2.95;;;4.20;1.00;;;;;;4978799;28;20213;-74
2021/11/28 00:36:06;;;;;;;3.33;2.70;;;4.20;1.00;;;;;;4976872;28;20206;-74
2021/11/28 00:38:36;;;;;;;2.47;2.20;;;4.20;1.00;;;;;;4994294;28;20178;-74
2021/11/28 00:41:18;;;;;;;3.60;2.90;;;4.30;1.00;;;;;;4978362;28;20189;-74
2021/11/28 00:44:00;;;;;;;4.15;2.40;;;4.20;1.00;;;;;;4974918;28;20529;-74
2021/11/28 00:46:36;;;;;;;5.10;2.95;;;4.20;1.00;;;;;;4974239;28;20186;-74
2021/11/28 00:49:04;;;;;;;2.80;2.60;;;4.30;1.00;;;;;;4978591;28;20193;-74
2021/11/28 00:51:36;;;;;;;4.18;3.05;;;4.30;1.00;;;;;;4996490;28;20212;-74
2021/11/28 00:54:30;;;;;;;5.20;2.50;;;4.30;1.00;;;;;;4995365;28;20174;-74
2021/11/28 00:57:01;;;;;;;3.10;2.40;;;4.30;1.00;;;;;;4990363;28;20208;-74
2021/11/28 00:59:30;;;;;;;2.80;2.60;;;4.30;1.00;;;;;;4996131;28;20177;-75
2021/11/28 01:01:56;;;;;;;2.67;2.38;;;4.30;1.00;;;;;;4995969;28;20794;-75
2021/11/28 01:04:24;;;;;;;2.73;2.50;;;4.40;1.00;;;;;;4995850;28;20177;-74
2021/11/28 01:06:50;;;;;;;3.57;2.70;;;4.40;1.00;;;;;;4995816;28;20170;-74
2021/11/28 01:09:16;;;;;;;6.73;2.80;;;4.40;1.00;;;;;;4995693;28;20423;-74
2021/11/28 01:21:54;;;;;;;3.53;2.75;;;4.40;1.00;;;;;;4995819;28;20188;-77
2021/11/28 01:24:37;;;;;;;3.03;2.70;;;4.40;1.00;;;;;;4995438;28;20176;-77
2021/11/28 01:27:06;;;;;;;2.65;2.40;;;4.40;1.00;;;;;;4985071;28;20245;-74
2021/11/28 01:29:31;;;;;;;2.63;2.42;;;4.40;1.00;;;;;;4980205;28;20171;-74
2021/11/28 01:32:02;;;;;;;2.93;2.50;;;4.40;1.00;;;;;;4985404;28;20616;-74
2021/11/28 01:34:28;;;;;;;8.40;2.53;;;4.40;1.00;;;;;;4995148;28;20496;-74
2021/11/28 01:36:54;;;;;;;2.53;2.22;;;4.40;1.00;;;;;;4986037;28;20459;-75
2021/11/28 01:39:20;;;;;;;3.85;2.90;;;4.40;1.00;;;;;;4992290;28;20568;-74
2021/11/28 01:41:49;;;;;;;4.00;2.27;;;4.40;1.00;;;;;;4985665;28;20169;-77
2021/11/28 01:44:18;;;;;;;3.28;2.55;;;4.40;1.00;;;;;;4995125;28;20167;-77
2021/11/28 01:47:23;;;;;;;4.05;3.17;;;4.40;1.00;;;;;;4995102;28;20178;-77
2021/11/28 01:50:12;;;;;;;3.67;2.03;;;4.40;1.00;;;;;;4999503;28;20189;-77
2021/11/28 01:53:12;;;;;;;2.10;2.00;;;4.40;1.00;;;;;;4995046;28;20417;-77
2021/11/28 01:55:37;;;;;;;4.00;2.88;;;4.40;1.00;;;;;;4994975;28;20554;-74
2021/11/28 01:58:08;;;;;;;2.23;1.90;;;4.40;1.00;;;;;;4994927;28;20667;-74
2021/11/28 02:00:39;;;;;;;3.03;2.40;;;4.40;1.00;;;;;;4993179;28;20162;-74
2021/11/28 02:03:07;;;;;;;2.22;2.03;;;4.40;1.00;;;;;;4994994;28;20168;-74
2021/11/28 02:05:46;;;;;;;3.85;2.30;;;4.40;1.00;;;;;;4993928;28;20530;-75
2021/11/28 02:08:19;;;;;;;2.40;2.17;;;4.40;1.00;;;;;;4994733;28;20188;-74
2021/11/28 02:10:54;;;;;;;2.97;2.17;;;4.40;1.00;;;;;;4995357;28;20178;-74
2021/11/28 02:13:22;;;;;;;2.33;2.13;;;4.40;1.00;;;;;;4994888;28;20192;-74
2021/11/28 02:15:49;;;;;;;2.20;1.83;;;4.40;1.00;;;;;;4991596;28;20221;-74
2021/11/28 02:18:25;;;;;;;4.40;3.07;;;4.40;1.00;;;;;;4994728;28;20174;-74
2021/11/28 02:20:57;;;;;;;3.03;2.20;;;4.50;1.00;;;;;;4994572;28;20723;-74
2021/11/28 02:23:23;;;;;;;3.85;2.42;;;4.40;1.00;;;;;;4994537;28;20896;-75
2021/11/28 02:26:04;;;;;;;4.70;2.55;;;4.40;1.00;;;;;;4995099;28;20236;-74
2021/11/28 02:28:32;;;;;;;2.08;1.88;;;4.40;1.00;;;;;;4994678;28;20617;-74
2021/11/28 02:31:00;;;;;;;6.25;2.58;;;4.40;1.00;;;;;;4994482;28;20185;-74
2021/11/28 02:33:26;;;;;;;2.53;2.30;;;4.40;1.00;;;;;;4988216;28;20268;-74
2021/11/28 02:36:00;;;;;;;4.53;2.30;;;4.40;1.00;;;;;;4994377;28;20570;-75
2021/11/28 02:38:26;;;;;;;9.30;2.40;;;4.40;1.00;;;;;;4994570;28;20975;-74
2021/11/28 02:51:18;;;;;;;3.70;2.00;;;4.40;1.00;;;;;;4994361;28;21025;-77
2021/11/28 02:54:12;;;;;;;3.45;2.00;;;4.40;1.00;;;;;;4974879;28;20583;-77
2021/11/28 02:56:48;;;;;;;2.72;2.13;;;4.40;1.00;;;;;;4980790;28;20193;-77
2021/11/28 03:02:37;;;;;;;3.78;2.67;;;4.40;1.00;;;;;;4994290;28;20224;-77
2021/11/28 03:05:47;;;;;;;3.93;2.60;;;4.40;1.00;;;;;;4994027;28;20181;-78
2021/11/28 03:08:15;;;;;;;1.90;1.80;;;4.40;1.00;;;;;;4994019;28;20400;-77
2021/11/28 03:11:00;;;;;;;2.53;2.28;;;4.40;1.00;;;;;;4994678;28;20268;-77
2021/11/28 03:13:38;;;;;;;2.35;2.10;;;4.40;1.00;;;;;;4994329;28;20177;-74
2021/11/28 03:16:08;;;;;;;1.90;1.80;;;4.40;1.00;;;;;;4994482;28;20200;-74
2021/11/28 03:18:35;;;;;;;5.68;2.50;;;4.40;1.00;;;;;;4990012;28;20656;-74
2021/11/28 03:21:11;;;;;;;2.60;2.40;;;4.40;1.00;;;;;;4997928;28;20166;-74
2021/11/28 03:23:45;;;;;;;5.63;2.83;;;4.40;1.00;;;;;;4985055;28;20679;-74
2021/11/28 03:29:42;;;;;;;3.42;2.35;;;4.40;1.00;;;;;;4980657;28;20155;-77
2021/11/28 03:32:12;;;;;;;2.78;2.03;;;4.40;1.00;;;;;;4997601;28;20192;-77
2021/11/28 03:34:42;;;;;;;2.67;2.30;;;4.40;1.00;;;;;;4996215;28;20547;-77
2021/11/28 03:37:18;;;;;;;5.47;2.93;;;4.40;1.00;;;;;;4997341;28;20184;-77
2021/11/28 03:39:44;;;;;;;5.47;3.00;;;4.40;1.00;;;;;;4997397;28;20531;-77
2021/11/28 03:45:31;;;;;;;2.77;2.57;;;4.40;1.00;;;;;;4977766;28;20233;-77
2021/11/28 03:52:00;;;;;;;15.63;2.50;;;4.40;1.00;;;;;;4977731;28;20900;-77
2021/11/28 03:55:14;;;;;;;2.80;2.25;;;4.40;1.00;;;;;;4984329;28;20879;-77
2021/11/28 03:57:40;;;;;;;2.63;2.42;;;4.40;1.00;;;;;;4987542;28;20237;-74
2021/11/28 04:00:10;;;;;;;2.13;2.00;;;4.40;1.00;;;;;;4984581;28;20174;-73
2021/11/28 04:02:42;;;;;;;4.80;2.10;;;4.40;1.00;;;;;;4980546;28;20418;-74
2021/11/28 04:05:09;;;;;;;5.90;2.30;;;4.40;1.00;;;;;;4997113;28;20395;-74
2021/11/28 04:07:37;;;;;;;2.38;2.22;;;4.40;1.00;;;;;;4990153;28;20441;-74
2021/11/28 04:10:07;;;;;;;5.65;3.30;;;4.50;1.00;;;;;;4990664;28;20205;-74
2021/11/28 04:15:55;;;;;;;4.78;2.95;;;4.50;1.00;;;;;;4985448;28;20252;-77
2021/11/28 04:18:42;;;;;;;4.30;2.83;;;4.50;1.00;;;;;;4996974;28;20170;-77
2021/11/28 04:25:23;;;;;;;4.60;2.80;;;4.50;1.00;;;;;;4996772;28;20213;-77
2021/11/28 04:27:50;;;;;;;3.33;2.10;;;4.50;1.00;;;;;;4996285;28;20173;-74
2021/11/28 04:30:19;;;;;;;3.35;2.30;;;4.50;1.00;;;;;;4996854;28;20220;-74
2021/11/28 04:32:45;;;;;;;3.77;3.10;;;4.50;1.00;;;;;;4996246;28;20255;-74
2021/11/28 04:35:11;;;;;;;2.43;2.30;;;4.50;1.00;;;;;;4996763;28;20820;-74
2021/11/28 04:37:42;;;;;;;3.17;2.80;;;4.50;1.00;;;;;;4996365;28;20409;-74
2021/11/28 04:40:09;;;;;;;4.97;3.03;;;4.60;1.00;;;;;;4977144;28;20901;-74
2021/11/28 04:42:36;;;;;;;3.72;2.78;;;4.60;1.00;;;;;;4990945;28;20182;-74
2021/11/28 04:45:04;;;;;;;5.32;3.30;;;4.60;1.00;;;;;;4996520;28;20170;-74
2021/11/28 04:47:30;;;;;;;7.82;2.95;;;4.60;1.00;;;;;;4995720;28;20728;-74
2021/11/28 04:49:56;;;;;;;2.73;2.53;;;4.60;1.00;;;;;;4996650;28;20173;-74
2021/11/28 04:52:30;;;;;;;4.57;3.10;;;4.60;1.00;;;;;;4996123;28;20401;-74
2021/11/28 04:54:56;;;;;;;3.47;3.05;;;4.50;1.00;;;;;;5000346;28;20168;-74
2021/11/28 04:57:24;;;;;;;5.35;2.90;;;4.50;1.00;;;;;;5001246;28;20182;-74
2021/11/28 05:00:00;;;;;;;3.50;3.17;;;4.50;1.00;;;;;;4996292;28;20181;-74
2021/11/28 05:02:30;;;;;;;5.63;3.40;;;4.50;1.00;;;;;;4989785;28;20493;-74
2021/11/28 05:04:56;;;;;;;6.20;3.00;;;4.50;1.00;;;;;;4989721;28;20806;-74
2021/11/28 05:07:22;;;;;;;5.53;3.27;;;4.50;1.00;;;;;;4995750;28;20512;-74
2021/11/28 05:09:47;;;;;;;6.60;3.10;;;4.50;1.00;;;;;;4995991;28;20158;-74
2021/11/28 05:12:48;;;;;;;4.83;2.80;;;4.50;1.00;;;;;;4996267;28;20170;-77
2021/11/28 05:16:00;;;;;;;13.70;3.37;;;4.50;1.00;;;;;;4985792;28;20942;-77
2021/11/28 05:18:48;;;;;;;4.03;2.63;;;4.40;1.00;;;;;;4992363;28;20420;-77
2021/11/28 05:21:36;;;;;;;4.28;2.45;;;4.40;1.00;;;;;;4990547;28;20184;-77
2021/11/28 05:24:06;;;;;;;7.47;3.67;;;4.40;1.00;;;;;;4995747;28;20636;-77
2021/11/28 05:27:12;;;;;;;9.27;3.23;;;4.40;1.00;;;;;;4995698;28;20570;-77
2021/11/28 05:29:42;;;;;;;2.92;2.50;;;4.30;1.00;;;;;;4995721;28;20417;-74
2021/11/28 05:32:08;;;;;;;4.60;2.83;;;4.30;1.00;;;;;;4995317;28;20652;-74
2021/11/28 05:34:36;;;;;;;4.23;2.90;;;4.20;1.00;;;;;;4995323;28;20216;-74
2021/11/28 05:37:02;;;;;;;2.65;2.45;;;4.20;1.00;;;;;;4995019;28;20456;-74
2021/11/28 05:39:28;;;;;;;2.57;2.20;;;4.20;1.00;;;;;;4982290;28;20174;-74
2021/11/28 05:41:54;;;;;;;4.50;2.70;;;4.20;1.00;;;;;;4995399;28;20397;-74
2021/11/28 05:44:25;;;;;;;5.73;3.57;;;4.10;1.00;;;;;;4995067;28;20216;-76
2021/11/28 05:47:24;;;;;;;9.37;3.80;;;4.20;1.00;;;;;;4995012;28;20467;-76
2021/11/28 05:54:00;;;;;;;2.85;2.65;;;4.10;1.00;;;;;;4994980;28;20675;-77
2021/11/28 05:59:47;;;;;;;4.70;2.97;;;4.00;1.00;;;;;;4976086;28;20176;-76
2021/11/28 06:02:18;;;;;;;5.50;3.33;;;4.00;1.00;;;;;;4975608;28;20163;-76
2021/11/28 06:04:44;;;;;;;3.75;2.88;;;3.90;1.00;;;;;;4992594;28;20516;-75
2021/11/28 06:07:30;;;;;;;4.30;2.60;;;3.90;1.00;;;;;;4994625;28;20181;-77
2021/11/28 06:13:18;;;;;;;11.13;3.63;;;4.00;1.00;;;;;;4994834;28;20248;-74
2021/11/28 06:15:48;;;;;;;4.05;3.30;;;3.90;1.00;;;;;;4994553;28;20200;-74
2021/11/28 06:18:14;;;;;;;4.28;3.10;;;3.90;1.00;;;;;;4991760;28;20174;-74
2021/11/28 06:20:40;;;;;;;4.10;3.10;;;3.90;1.00;;;;;;4981230;28;20644;-75
2021/11/28 06:23:06;;;;;;;3.47;2.83;;;3.90;1.00;;;;;;4994410;28;20552;-74
2021/11/28 06:25:32;;;;;;;7.53;3.40;;;3.90;1.00;;;;;;4993506;28;20185;-74
2021/11/28 06:34:43;;;;;;;4.00;2.65;;;3.80;1.00;;;;;;4994434;28;20193;-76
2021/11/28 06:37:18;;;;;;;8.00;3.13;;;3.80;1.00;;;;;;4994978;28;20186;-77
2021/11/28 06:40:06;;;;;;;3.72;2.80;;;3.80;1.00;;;;;;4994284;28;20225;-77
2021/11/28 06:43:18;;;;;;;4.47;3.50;;;3.80;1.00;;;;;;4994552;28;20276;-76
2021/11/28 06:46:12;;;;;;;5.78;3.65;;;3.80;1.00;;;;;;4994339;28;20189;-77
2021/11/28 06:48:42;;;;;;;5.00;3.10;;;3.70;1.00;;;;;;4994322;28;20172;-77
2021/11/28 06:54:48;;;;;;;3.05;2.58;;;3.70;1.00;;;;;;5000779;28;20272;-78
2021/11/28 06:57:36;;;;;;;3.63;2.35;;;3.70;1.00;;;;;;4983354;28;20169;-78
2021/11/28 07:00:04;;;;;;;7.60;3.15;;;3.70;1.00;;;;;;5000954;28;20177;-77
2021/11/28 07:02:30;;;;;;;3.78;3.10;;;3.70;1.00;;;;;;5000757;28;20186;-76
2021/11/28 07:04:58;;;;;;;7.67;2.90;;;3.70;1.00;;;;;;5000395;28;20166;-77
2021/11/28 07:11:18;;;;;;;4.28;3.60;;;3.70;1.00;;;;;;4989532;28;20695;-77
2021/11/28 07:13:43;;;;;;;6.18;3.33;;;3.70;1.00;;;;;;5001027;28;20236;-74
2021/11/28 07:16:19;;;;;;;4.03;3.53;;;3.70;1.00;;;;;;5000660;28;20193;-74
2021/11/28 07:18:49;;;;;;;6.93;3.67;;;3.70;1.00;;;;;;4981208;28;20232;-75
2021/11/28 07:21:16;;;;;;;5.43;3.08;;;3.80;1.00;;;;;;4981214;28;20250;-74
2021/11/28 07:23:45;;;;;;;2.75;2.55;;;3.80;1.00;;;;;;5000589;28;20252;-74
2021/11/28 07:26:11;;;;;;;4.18;2.90;;;3.80;1.00;;;;;;4996771;28;20229;-74
2021/11/28 07:28:44;;;;;;;9.60;3.50;;;3.80;1.00;;;;;;5000453;28;20524;-74
2021/11/28 07:31:10;;;;;;;3.95;2.80;;;3.80;1.00;;;;;;4987597;28;20405;-74
2021/11/28 07:33:37;;;;;;;4.18;3.63;;;3.90;1.00;;;;;;5000457;28;20170;-74
2021/11/28 07:36:05;;;;;;;6.82;3.58;;;3.90;1.00;;;;;;5000255;28;20182;-74
2021/11/28 07:38:36;;;;;;;5.60;3.75;;;3.80;1.00;;;;;;4992095;28;20225;-74
2021/11/28 07:41:02;;;;;;;3.00;2.80;;;3.80;1.00;;;;;;4996620;28;20248;-74
2021/11/28 07:43:30;;;;;;;5.97;3.88;;;3.90;1.00;;;;;;5000317;28;20185;-74
2021/11/28 07:46:30;;;;;;;9.55;3.47;;;3.90;1.00;;;;;;5001036;28;20201;-78
2021/11/28 07:49:36;;;;;;;5.07;3.42;;;4.00;1.00;;;;;;5000440;28;20177;-77
2021/11/28 07:52:48;;;;;;;5.88;3.55;;;4.00;1.00;;;;;;4993262;28;20173;-77
2021/11/28 07:55:13;;;;;;;3.85;3.45;;;4.10;1.00;;;;;;4992520;28;20200;-77
2021/11/28 07:58:00;;;;;;;5.67;3.87;;;4.10;1.00;;;;;;5000305;28;20178;-76
2021/11/28 08:00:31;;;;;;;8.38;4.05;;;4.20;1.00;;;;;;5000309;28;20182;-76
2021/11/28 08:09:45;;;;;;;4.10;3.30;;;4.30;1.00;;;;;;4989843;28;20203;-76
2021/11/28 08:12:11;;;;;;;4.65;3.30;;;4.40;1.00;;;;;;4996931;28;20613;-77
2021/11/28 08:14:38;;;;;;;7.15;4.10;;;4.40;1.00;;;;;;4997208;28;20168;-74
2021/11/28 08:17:07;;;;;;;8.80;3.97;;;4.50;1.00;;;;;;4993140;28;20613;-74
2021/11/28 08:19:33;;;;;;;7.30;3.97;;;4.60;1.00;;;;;;4996812;28;20182;-74
2021/11/28 08:21:59;;;;;;;5.27;4.10;;;4.60;1.00;;;;;;4996996;28;20239;-74
2021/11/28 08:24:54;;;;;;;5.40;4.00;;;4.70;1.00;;;;;;4996865;28;20443;-76
2021/11/28 08:27:30;;;;;;;7.23;4.30;;;4.70;1.00;;;;;;4992299;28;20405;-76
2021/11/28 08:29:59;;;;;;;4.90;4.00;;;4.80;1.00;;;;;;4996992;28;20408;-74
2021/11/28 08:32:30;;;;;;;3.97;3.50;;;4.80;1.00;;;;;;4996433;28;20405;-74
2021/11/28 08:35:18;;;;;;;6.05;4.72;;;4.80;1.00;;;;;;4996267;28;20424;-74
2021/11/28 08:37:45;;;;;;;6.15;3.97;;;4.90;1.00;;;;;;4996300;28;20189;-76
2021/11/28 08:40:16;;;;;;;6.67;4.10;;;5.00;1.00;;;;;;4995147;28;20543;-77
2021/11/28 08:42:42;;;;;;;4.90;3.75;;;5.00;1.00;;;;;;4996596;28;20915;-74
2021/11/28 08:45:31;;;;;;;6.13;3.63;;;5.10;1.00;;;;;;4996709;28;20588;-79
2021/11/28 08:52:00;;;;;;;4.63;3.78;;;5.20;1.00;;;;;;4977106;28;20154;-77
2021/11/28 08:54:36;;;;;;;6.80;4.15;;;5.30;1.00;;;;;;4983188;28;20186;-76
2021/11/28 08:57:12;;;;;;;11.40;5.07;;;5.30;1.00;;;;;;4977681;28;20612;-77
2021/11/28 08:59:43;;;;;;;18.40;4.80;;;5.40;1.00;;;;;;4985650;28;20824;-76
2021/11/28 09:05:42;;;;;;;6.13;4.30;;;5.50;1.00;;;;;;4996090;28;20404;-76
2021/11/28 09:11:30;;;;;;;7.27;4.13;;;5.50;1.00;;;;;;4990053;28;20403;-76
2021/11/28 09:14:00;;;;;;;9.83;5.00;;;5.50;1.00;;;;;;4995513;28;20413;-77
2021/11/28 09:16:36;;;;;;;9.03;4.97;;;5.60;1.00;;;;;;4995411;28;20858;-73
2021/11/28 09:19:07;;;;;;;5.97;4.50;;;5.70;1.00;;;;;;4994868;28;20539;-74
2021/11/28 09:21:33;;;;;;;6.10;4.47;;;5.80;1.00;;;;;;4995810;28;20861;-74
2021/11/28 09:26:44;;;;;;;5.53;4.20;;;5.90;1.00;;;;;;4995330;28;20480;-74
2021/11/28 09:29:12;;;;;;;10.30;4.73;;;6.00;1.00;;;;;;4995483;28;20424;-74
2021/11/28 09:31:54;;;;;;;12.53;4.43;;;6.00;1.00;;;;;;4995794;28;20416;-77
2021/11/28 09:38:31;;;;;;;6.07;4.40;;;6.10;1.00;;;;;;4995412;28;20420;-77
2021/11/28 09:41:18;;;;;;;4.37;3.43;;;6.10;1.00;;;;;;4985710;28;20432;-76
2021/11/28 09:44:24;;;;;;;4.80;4.30;;;6.10;1.00;;;;;;4995453;28;20496;-77
2021/11/28 09:47:25;;;;;;;5.83;4.43;;;6.10;1.00;;;;;;4994948;28;20479;-77
2021/11/28 09:50:07;;;;;;;7.17;4.47;;;6.10;1.00;;;;;;4994924;28;20423;-76
2021/11/28 09:52:50;;;;;;;8.00;4.57;;;6.10;1.00;;;;;;4994614;28;20413;-77
2021/11/28 09:55:17;;;;;;;7.87;4.17;;;6.10;1.00;;;;;;4984094;28;20444;-77
2021/11/28 09:58:36;;;;;;;61.03;4.73;;;6.10;1.00;;;;;;4994818;28;20417;-77
2021/11/28 10:01:02;;;;;;;7.97;3.77;;;6.10;1.00;;;;;;4995007;28;20888;-73
2021/11/28 10:03:28;;;;;;;7.17;4.60;;;6.10;1.00;;;;;;4994577;28;20523;-73
2021/11/28 10:05:55;;;;;;;5.13;4.00;;;6.10;1.00;;;;;;4994820;28;20831;-74
2021/11/28 10:08:22;;;;;;;6.17;4.60;;;6.10;1.00;;;;;;4994989;28;20500;-73
2021/11/28 10:11:16;;;;;;;6.87;4.23;;;6.20;1.00;;;;;;4994839;28;20460;-74
2021/11/28 10:13:54;;;;;;;7.30;4.70;;;6.20;1.00;;;;;;4994974;28;20710;-74
2021/11/28 10:16:50;;;;;;;6.70;3.63;;;6.10;1.00;;;;;;4987254;28;20454;-76
2021/11/28 10:19:16;;;;;;;7.53;4.80;;;6.10;1.00;;;;;;4994522;28;20421;-75
2021/11/28 10:21:42;;;;;;;5.67;4.10;;;6.10;1.00;;;;;;4994540;28;20587;-74
2021/11/28 10:24:09;;;;;;;4.07;3.67;;;6.10;1.00;;;;;;4994075;28;20185;-74
2021/11/28 10:27:02;;;;;;;8.60;4.00;;;6.20;1.00;;;;;;4993354;28;20911;-74
2021/11/28 10:29:30;;;;;;;9.90;4.07;;;6.20;1.00;;;;;;4994313;28;20770;-73
2021/11/28 10:31:59;;;;;;;6.73;4.80;;;6.20;1.00;;;;;;4994804;28;20400;-73
2021/11/28 10:34:27;;;;;;;7.40;4.57;;;6.20;1.00;;;;;;4994084;28;20421;-74
2021/11/28 10:37:17;;;;;;;8.73;4.10;;;6.30;1.00;;;;;;4994221;28;20457;-72
2021/11/28 10:39:50;;;;;;;5.67;4.07;;;6.30;1.00;;;;;;4994503;28;20500;-73
2021/11/28 10:42:25;;;;;;;4.63;3.83;;;6.30;1.00;;;;;;4994337;28;20443;-73
2021/11/28 10:45:11;;;;;;;7.30;4.40;;;6.30;1.00;;;;;;4990174;28;20428;-73
2021/11/28 10:47:48;;;;;;;5.60;4.13;;;6.40;1.00;;;;;;4982333;28;20793;-74
2021/11/28 10:50:33;;;;;;;7.30;4.30;;;6.50;1.00;;;;;;4982011;28;20416;-74
2021/11/28 10:53:19;;;;;;;5.43;4.20;;;6.70;1.00;;;;;;4990781;28;20956;-74
2021/11/28 10:55:49;;;;;;;5.90;4.60;;;6.70;1.00;;;;;;4982175;28;20456;-73
2021/11/28 10:58:19;;;;;;;6.80;4.07;;;6.80;1.00;;;;;;4993493;28;20495;-74
2021/11/28 11:00:48;;;;;;;5.40;4.10;;;6.90;1.00;;;;;;4994405;28;20439;-75
2021/11/28 11:04:06;;;;;;;4.53;3.80;;;6.90;1.00;;;;;;4994092;28;20424;-78
2021/11/28 11:06:32;;;;;;;6.50;4.30;;;7.00;1.00;;;;;;4981067;28;20425;-77
2021/11/28 11:09:45;;;;;;;5.47;3.63;;;7.00;1.00;;;;;;4994292;28;20736;-77
2021/11/28 11:15:44;;;;;;;6.10;3.83;;;6.70;1.00;;;;;;4993797;28;20519;-78
2021/11/28 11:18:12;;;;;;;3.70;3.40;;;6.80;1.00;;;;;;4993911;28;20759;-74
2021/11/28 11:20:46;;;;;;;4.77;3.40;;;6.80;1.00;;;;;;4993686;28;20425;-73
2021/11/28 11:23:34;;;;;;;9.83;4.20;;;6.70;1.00;;;;;;4993665;28;20416;-73
2021/11/28 11:26:30;;;;;;;6.00;4.10;;;6.70;1.00;;;;;;4993924;28;20423;-73
2021/11/28 11:29:10;;;;;;;5.00;3.83;;;6.80;1.00;;;;;;4993707;28;20417;-74
2021/11/28 11:31:42;;;;;;;7.70;4.00;;;6.80;1.00;;;;;;4993726;28;20487;-74
2021/11/28 11:34:31;;;;;;;4.93;3.47;;;6.70;1.00;;;;;;4993268;28;20486;-74
2021/11/28 11:37:12;;;;;;;4.37;3.70;;;6.70;1.00;;;;;;4992513;28;20452;-73
2021/11/28 11:39:37;;;;;;;8.67;4.60;;;6.80;1.00;;;;;;4997247;28;20413;-74
2021/11/28 11:42:04;;;;;;;7.70;3.93;;;6.80;1.00;;;;;;4997018;28;20436;-74
2021/11/28 11:44:30;;;;;;;6.97;3.87;;;6.90;1.00;;;;;;4996071;28;20177;-74
2021/11/28 11:47:06;;;;;;;4.80;3.70;;;6.90;1.00;;;;;;4990364;28;20409;-74
2021/11/28 11:49:50;;;;;;;5.57;3.60;;;6.90;1.00;;;;;;4990347;28;20456;-74
2021/11/28 11:52:17;;;;;;;3.67;3.03;;;6.90;1.00;;;;;;4997073;28;20417;-73
2021/11/28 11:55:12;;;;;;;5.23;3.20;;;6.80;1.00;;;;;;4997227;28;20809;-74
2021/11/28 11:57:50;;;;;;;3.80;3.10;;;6.70;1.00;;;;;;4977558;28;20406;-74
2021/11/28 12:00:34;;;;;;;6.07;3.30;;;6.60;1.00;;;;;;4992534;28;20495;-74
2021/11/28 12:03:11;;;;;;;5.33;3.17;;;6.60;1.00;;;;;;4997515;28;20411;-74
2021/11/28 12:05:49;;;;;;;5.37;2.60;;;6.50;1.00;;;;;;4999587;28;20409;-73
2021/11/28 12:08:14;;;;;;;5.57;3.50;;;6.50;1.00;;;;;;5002776;28;20420;-73
2021/11/28 12:10:46;;;;;;;3.63;2.97;;;6.50;1.00;;;;;;4996913;28;20447;-73
2021/11/28 12:13:31;;;;;;;5.13;2.90;;;6.40;1.00;;;;;;4996906;28;20185;-75
2021/11/28 12:16:04;;;;;;;2.80;2.57;;;;;;;;;;4985063;28;20500;-73
2021/11/28 12:18:43;;;;;;;2.30;2.20;;;6.40;1.00;;;;;;4994808;28;20405;-76
2021/11/28 12:27:53;;;;;;;3.10;2.00;;;6.40;1.00;;;;;;4995806;28;20404;-76
2021/11/28 12:30:33;;;;;;;1.90;1.80;;;6.30;1.00;;;;;;4995811;28;20417;-76
2021/11/28 12:32:58;;;;;;;2.40;2.20;;;6.30;1.00;;;;;;4996090;28;20188;-74
2021/11/28 12:35:38;;;;;;;4.93;2.33;;;6.30;1.00;;;;;;4994385;28;20860;-74
2021/11/28 12:38:04;;;;;;;2.30;2.10;;;;;;;;;;4995964;28;20266;-74
2021/11/28 12:40:35;;;;;;;3.10;2.00;;;6.40;1.00;;;;;;4995768;28;20459;-74
2021/11/28 12:43:16;;;;;;;6.13;2.37;;;6.50;1.00;;;;;;4995460;28;20465;-74
2021/11/28 12:45:42;;;;;;;2.33;2.00;;;6.60;1.00;;;;;;4995369;28;20824;-74
2021/11/28 12:48:23;;;;;;;2.10;1.97;;;6.50;1.00;;;;;;4995458;28;20436;-74
2021/11/28 12:50:58;;;;;;;3.63;2.47;;;6.50;1.00;;;;;;4995006;28;20421;-74
2021/11/28 12:53:32;;;;;;;3.13;2.10;;;6.50;1.00;;;;;;4995025;28;20431;-74
2021/11/28 12:56:15;;;;;;;4.30;2.00;;;6.50;1.00;;;;;;5001304;28;20448;-74
2021/11/28 12:59:10;;;;;;;2.50;2.10;;;6.60;1.00;;;;;;4995144;28;20427;-74
2021/11/28 13:01:58;;;;;;;2.13;1.90;;;6.60;1.00;;;;;;4995261;28;20441;-74
2021/11/28 13:04:39;;;;;;;1.90;1.80;;;6.70;1.00;;;;;;4996081;28;20511;-76
2021/11/28 13:07:28;;;;;;;2.53;2.30;;;6.70;1.00;;;;;;4994968;28;20409;-77
2021/11/28 13:09:57;;;;;;;3.37;2.13;;;6.80;1.00;;;;;;4994759;28;20420;-76
2021/11/28 13:12:27;;;;;;;1.70;1.60;;;6.80;1.00;;;;;;4995176;28;20508;-77
2021/11/28 13:14:55;;;;;;;3.33;2.33;;;6.80;1.00;;;;;;4995017;28;20456;-76
2021/11/28 13:17:25;;;;;;;1.47;1.37;;;6.80;1.00;;;;;;4995225;28;20453;-76
2021/11/28 13:19:52;;;;;;;1.37;1.27;;;6.80;1.00;;;;;;4994493;28;20974;-76
2021/11/28 13:22:18;;;;;;;2.50;2.30;;;6.70;1.00;;;;;;4994656;28;20420;-77
2021/11/28 13:24:44;;;;;;;3.17;2.13;;;6.60;1.00;;;;;;4994708;28;20420;-76
2021/11/28 13:27:10;;;;;;;4.23;1.97;;;6.70;1.00;;;;;;4994907;28;20919;-77
2021/11/28 13:29:38;;;;;;;2.37;2.17;;;6.70;1.00;;;;;;4994527;28;20424;-77
2021/11/28 13:32:12;;;;;;;3.00;2.20;;;6.70;1.00;;;;;;4994827;28;20423;-77
2021/11/28 13:34:38;;;;;;;2.97;2.23;;;6.70;1.00;;;;;;4994739;28;20421;-77
2021/11/28 13:37:03;;;;;;;5.37;2.80;;;6.80;1.00;;;;;;4994644;28;20448;-76
2021/11/28 13:39:30;;;;;;;3.53;2.87;;;6.80;1.00;;;;;;4994505;28;20173;-77
2021/11/28 13:41:56;;;;;;;3.73;2.57;;;6.80;1.00;;;;;;4992404;28;20182;-77
2021/11/28 13:44:25;;;;;;;3.47;2.40;;;6.80;1.00;;;;;;4993929;28;20428;-77
2021/11/28 13:46:56;;;;;;;2.33;2.13;;;6.80;1.00;;;;;;4993895;28;20185;-77
2021/11/28 13:49:24;;;;;;;2.30;2.10;;;6.90;1.00;;;;;;4977057;28;20410;-76
2021/11/28 13:51:49;;;;;;;3.00;2.73;;;6.80;1.00;;;;;;4989712;28;20429;-76
2021/11/28 13:54:17;;;;;;;6.43;2.60;;;6.90;1.00;;;;;;4993833;28;20562;-78
2021/11/28 13:56:45;;;;;;;20.83;2.80;;;6.80;1.00;;;;;;4991658;28;20653;-77
2021/11/28 13:59:17;;;;;;;4.63;2.50;;;6.70;1.00;;;;;;4994052;28;20412;-78
2021/11/28 14:01:43;;;;;;;2.17;1.73;;;6.70;1.00;;;;;;4993124;28;20486;-78
2021/11/28 14:04:24;;;;;;;5.07;2.77;;;6.70;1.00;;;;;;4994208;28;20786;-74
2021/11/28 14:06:51;;;;;;;3.07;2.70;;;6.70;1.00;;;;;;4986172;28;20459;-74
2021/11/28 14:09:16;;;;;;;6.30;2.97;;;6.70;1.00;;;;;;4993892;28;20504;-74
2021/11/28 14:11:43;;;;;;;6.93;2.77;;;6.60;1.00;;;;;;4993701;28;20531;-74
2021/11/28 14:14:10;;;;;;;4.97;3.07;;;6.50;1.00;;;;;;4991858;28;20191;-73
2021/11/28 14:16:36;;;;;;;4.00;2.87;;;6.50;1.00;;;;;;4993323;28;20456;-74
2021/11/28 14:19:03;;;;;;;4.00;2.70;;;6.50;1.00;;;;;;4993410;28;20830;-74
2021/11/28 14:21:37;;;;;;;4.20;2.53;;;6.50;1.00;;;;;;4992660;28;20751;-74
2021/11/28 14:24:27;;;;;;;2.23;2.03;;;6.50;1.00;;;;;;4992603;28;20450;-73
2021/11/28 14:26:53;;;;;;;3.97;2.13;;;6.50;1.00;;;;;;4992397;28;20512;-74
2021/11/28 14:29:27;;;;;;;4.20;2.53;;;6.50;1.00;;;;;;4991868;28;20424;-74
2021/11/28 14:32:00;;;;;;;3.37;2.90;;;6.50;1.00;;;;;;4981400;28;20443;-74
2021/11/28 14:34:27;;;;;;;3.07;2.60;;;6.50;1.00;;;;;;4993428;28;20416;-79
2021/11/28 14:36:53;;;;;;;2.77;2.47;;;6.50;1.00;;;;;;4993495;28;20457;-80
2021/11/28 14:39:36;;;;;;;4.87;3.00;;;6.40;1.00;;;;;;4993240;28;20421;-80
2021/11/28 14:42:19;;;;;;;4.53;2.50;;;6.40;1.00;;;;;;4993219;28;20532;-79
2021/11/28 14:44:47;;;;;;;2.23;2.03;;;6.30;1.00;;;;;;4993104;28;20472;-79
2021/11/28 14:47:30;;;;;;;2.50;2.30;;;6.30;1.00;;;;;;4989473;28;20483;-79
2021/11/28 14:50:01;;;;;;;4.53;2.43;;;6.30;1.00;;;;;;4993666;28;20412;-79
2021/11/28 14:52:30;;;;;;;3.07;2.77;;;6.30;1.00;;;;;;4987139;28;20477;-79
2021/11/28 14:55:12;;;;;;;2.43;2.23;;;6.30;1.00;;;;;;4994826;28;20412;-79
2021/11/28 14:57:44;;;;;;;2.87;2.60;;;6.30;1.00;;;;;;4986257;28;20934;-79
2021/11/28 15:00:22;;;;;;;3.10;2.50;;;6.20;1.00;;;;;;4993184;28;20456;-79
2021/11/28 15:02:48;;;;;;;2.63;2.30;;;6.20;1.00;;;;;;4992901;28;20459;-80
2021/11/28 15:05:18;;;;;;;2.20;2.00;;;6.20;1.00;;;;;;4993621;28;20457;-74
2021/11/28 15:07:44;;;;;;;3.20;2.23;;;6.10;1.00;;;;;;4991561;28;20289;-74
2021/11/28 15:10:13;;;;;;;2.63;2.37;;;6.10;1.00;;;;;;4993213;28;20955;-74
2021/11/28 15:12:41;;;;;;;4.90;2.50;;;6.10;1.00;;;;;;4994266;28;20428;-74
2021/11/28 15:15:15;;;;;;;2.40;2.20;;;6.00;1.00;;;;;;4996093;28;20824;-74
2021/11/28 15:17:42;;;;;;;4.00;2.33;;;6.00;1.00;;;;;;4992458;28;20467;-74
2021/11/28 15:20:27;;;;;;;4.87;3.20;;;5.90;1.00;;;;;;4996740;28;20936;-74
2021/11/28 15:22:55;;;;;;;3.20;2.87;;;5.90;1.00;;;;;;4991802;28;20853;-74
2021/11/28 15:25:24;;;;;;;6.03;3.07;;;5.80;1.00;;;;;;4996665;28;20568;-74
2021/11/28 15:27:51;;;;;;;4.70;2.87;;;5.80;1.00;;;;;;4996352;28;20428;-74
2021/11/28 15:30:19;;;;;;;3.03;2.73;;;5.70;1.00;;;;;;4996846;28;20934;-74
2021/11/28 15:32:47;;;;;;;2.40;2.30;;;5.60;1.00;;;;;;4995969;28;20451;-74
2021/11/28 15:35:13;;;;;;;5.93;2.63;;;5.60;1.00;;;;;;4995146;28;20432;-74